KMNM

Menominee-Marinette Twin County Airport

Menominee, Michigan, USA
METAR KMNM 170156Z AUTO 10009KT 10SM OVC016 M03/M06 A3016 RMK AO2 SLP233 T10281056 FZRANO $
Observed Flight Rules
Dec-17 @ 01:56 UTC (36 minutes ago) Marginal Visual Flight Rules
Wind Visibility Clouds
100° at 9 knots 10 miles
  • Overcast at 1,600' AGL
Temperatures Readings
Current -3°C / 27°F
Dewpoint -6°C / 21°F
Humidity 80%
Altimeter 30.16" Hg
Pressure 1023.3 hPa
Elevation 191
METAR KMNM 170156Z AUTO 10009KT 10SM OVC016 M03/M06 A3016 RMK AO2 SLP233 T10281056 FZRANO $
Observed Flight Rules
Dec-17 @ 01:56 UTC
(36 minutes ago)
MVFR
Wind Visibility
100° at 9 knots 10 miles
Clouds
  • Overcast at 1,600' AGL
Temperature Dewpoint
-3°C / 27°F -6°C / 21°F
Humidity Altimeter Pressure
80% 30.16" Hg 1023.3 hPa